createdAt,value
2023-02-24T00:01:25.168Z,6.10
2023-02-24T00:04:13.778Z,6.10
2023-02-24T00:07:01.531Z,6.10
2023-02-24T00:09:49.183Z,6.20
2023-02-24T00:12:36.626Z,6.20
2023-02-24T00:15:25.853Z,6.20
2023-02-24T00:18:13.182Z,6.20
2023-02-24T00:21:08.339Z,6.20
2023-02-24T00:23:55.523Z,6.20
2023-02-24T00:26:44.331Z,6.20
2023-02-24T00:29:32.776Z,6.20
2023-02-24T00:32:21.645Z,6.10
2023-02-24T00:35:10.459Z,6.10
2023-02-24T00:37:57.601Z,6.10
2023-02-24T00:40:45.970Z,6.10
2023-02-24T00:43:37.263Z,6.00
2023-02-24T00:46:31.784Z,6.00
2023-02-24T00:49:24.614Z,6.00
2023-02-24T00:52:13.904Z,6.00
2023-02-24T00:55:01.164Z,6.00
2023-02-24T00:57:50.961Z,6.00
2023-02-24T01:00:39.157Z,6.10
2023-02-24T01:03:28.002Z,6.10
2023-02-24T01:06:20.466Z,6.10
2023-02-24T01:09:12.252Z,6.10
2023-02-24T01:12:23.064Z,6.20
2023-02-24T01:15:12.259Z,6.10
2023-02-24T01:17:59.535Z,6.10
2023-02-24T01:20:46.891Z,6.10
2023-02-24T01:23:35.912Z,6.00
2023-02-24T01:26:23.883Z,6.00
2023-02-24T01:29:11.440Z,6.00
2023-02-24T01:31:59.599Z,6.00
2023-02-24T01:34:47.446Z,5.90
2023-02-24T01:37:34.924Z,6.00
2023-02-24T01:40:26.353Z,6.00
2023-02-24T01:43:13.485Z,6.00
2023-02-24T01:46:00.586Z,6.00
2023-02-24T01:48:47.876Z,6.00
2023-02-24T01:51:39.940Z,5.90
2023-02-24T01:54:29.496Z,6.00
2023-02-24T01:57:21.639Z,5.90
2023-02-24T02:00:12.464Z,5.90
2023-02-24T02:03:04.257Z,5.90
2023-02-24T02:05:52.761Z,5.90
2023-02-24T02:08:42.297Z,6.00
2023-02-24T02:11:29.418Z,6.00
2023-02-24T02:14:24.457Z,6.00
2023-02-24T02:17:19.667Z,6.00
2023-02-24T02:20:43.126Z,6.00
2023-02-24T02:23:59.871Z,6.00
2023-02-24T02:27:07.694Z,6.00
2023-02-24T02:30:26.390Z,6.00
2023-02-24T02:33:45.507Z,6.10
2023-02-24T02:36:38.878Z,6.10
2023-02-24T02:39:35.708Z,6.10
2023-02-24T02:42:31.642Z,6.10
2023-02-24T02:45:24.430Z,6.10
2023-02-24T02:48:18.246Z,6.20
2023-02-24T02:51:10.997Z,6.20
2023-02-24T02:54:02.956Z,6.20
2023-02-24T02:56:56.155Z,6.20
2023-02-24T02:59:50.276Z,6.20
2023-02-24T03:02:41.470Z,6.20
2023-02-24T03:05:33.145Z,6.20
2023-02-24T03:08:27.035Z,6.20
2023-02-24T03:11:18.178Z,6.20
2023-02-24T03:14:06.714Z,6.20
2023-02-24T03:16:56.005Z,6.20
2023-02-24T03:19:44.402Z,6.20
2023-02-24T03:22:36.304Z,6.10
2023-02-24T03:25:30.875Z,6.10
2023-02-24T03:28:23.860Z,6.00
2023-02-24T03:31:22.771Z,6.00
2023-02-24T03:34:14.033Z,5.90
2023-02-24T03:37:02.085Z,5.80
2023-02-24T10:00:26.172Z,7.00
2023-02-24T10:03:41.686Z,7.30
2023-02-24T10:06:35.562Z,7.60
2023-02-24T10:09:33.613Z,7.80
2023-02-24T10:12:26.438Z,7.90
2023-02-24T10:15:20.008Z,7.80
2023-02-24T10:18:33.266Z,7.80
2023-02-24T10:21:30.905Z,7.90
2023-02-24T10:24:29.538Z,8.10
2023-02-24T10:27:24.374Z,7.90
2023-02-24T10:30:28.148Z,7.90
2023-02-24T10:33:26.765Z,8.10
2023-02-24T10:36:17.406Z,8.00
2023-02-24T10:39:15.770Z,8.00
2023-02-24T10:42:16.807Z,8.00
2023-02-24T10:45:18.081Z,7.90
2023-02-24T10:48:11.539Z,8.00
2023-02-24T10:51:08.575Z,7.90
2023-02-24T10:54:22.837Z,8.00
2023-02-24T10:57:18.777Z,8.10
2023-02-24T11:00:51.953Z,8.20
2023-02-24T11:03:48.167Z,8.30
2023-02-24T11:06:49.333Z,8.50
2023-02-24T11:09:44.734Z,8.40
2023-02-24T11:12:55.552Z,8.30
2023-02-24T11:16:06.666Z,8.20
2023-02-24T11:18:56.982Z,8.20
2023-02-24T11:21:44.931Z,8.30
2023-02-24T11:24:32.243Z,8.30
2023-02-24T11:27:26.556Z,8.40
2023-02-24T11:30:22.420Z,8.70
2023-02-24T11:33:23.519Z,9.10
2023-02-24T11:36:23.042Z,9.50
2023-02-24T11:39:29.429Z,9.80
2023-02-24T11:42:20.773Z,10.60
2023-02-24T11:45:16.796Z,11.60
2023-02-24T11:48:08.085Z,12.80
2023-02-24T11:51:01.119Z,13.40
2023-02-24T11:53:53.953Z,14.50
2023-02-24T11:56:44.871Z,15.10
2023-02-24T11:59:38.460Z,14.90
2023-02-24T12:02:38.771Z,14.10
2023-02-24T12:05:28.712Z,13.30
2023-02-24T12:08:25.762Z,12.60
2023-02-24T12:11:22.284Z,12.00
2023-02-24T12:14:23.446Z,11.80
2023-02-24T12:17:19.314Z,11.30
2023-02-24T12:20:16.983Z,10.80
2023-02-24T12:23:18.378Z,10.90
2023-02-24T12:26:20.470Z,10.90
2023-02-24T12:29:33.084Z,10.70
2023-02-24T12:32:30.580Z,10.30
2023-02-24T12:35:28.932Z,10.20
2023-02-24T12:38:32.539Z,10.50
2023-02-24T12:41:46.469Z,10.70
2023-02-24T12:44:42.120Z,11.00
2023-02-24T12:47:38.659Z,11.60
2023-02-24T12:50:37.522Z,11.90
2023-02-24T12:53:33.724Z,11.50
2023-02-24T12:56:25.520Z,11.50
2023-02-24T12:59:19.049Z,11.60
2023-02-24T13:02:12.256Z,12.10
2023-02-24T13:05:10.179Z,12.60
2023-02-24T13:08:23.018Z,12.90
2023-02-24T13:11:22.141Z,13.50
2023-02-24T13:14:17.909Z,14.50
2023-02-24T13:17:21.045Z,14.50
2023-02-24T13:20:14.496Z,13.90
2023-02-24T13:23:02.133Z,13.30
2023-02-24T13:25:53.976Z,13.40
2023-02-24T13:28:41.366Z,14.30
2023-02-24T13:31:44.014Z,14.50
2023-02-24T13:34:34.186Z,14.60
2023-02-24T13:37:29.688Z,14.00
2023-02-24T13:40:26.699Z,13.60
2023-02-24T13:43:24.585Z,13.60
2023-02-24T13:46:19.946Z,13.40
2023-02-24T13:49:27.846Z,12.70
2023-02-24T13:52:27.417Z,12.60
2023-02-24T13:55:25.690Z,12.30
2023-02-24T13:58:28.587Z,11.80
2023-02-24T14:01:19.357Z,11.80
2023-02-24T14:04:16.919Z,12.40
2023-02-24T14:07:10.288Z,12.20
2023-02-24T14:10:00.946Z,12.60
2023-02-24T14:12:50.876Z,12.70
2023-02-24T14:15:42.664Z,12.40
2023-02-24T14:18:31.009Z,12.10
2023-02-24T14:21:23.549Z,11.80
2023-02-24T14:24:14.726Z,11.70
2023-02-24T14:27:03.689Z,11.30
2023-02-24T14:29:53.863Z,10.90
2023-02-24T14:32:43.661Z,10.70
2023-02-24T14:35:37.589Z,10.60
2023-02-24T14:38:38.118Z,10.50
2023-02-24T14:41:27.847Z,10.20
2023-02-24T14:44:21.953Z,10.10
2023-02-24T14:47:14.399Z,9.90
2023-02-24T14:50:05.306Z,9.70
2023-02-24T14:52:57.257Z,9.70
2023-02-24T14:55:50.211Z,9.60
2023-02-24T14:58:45.945Z,9.60
2023-02-24T15:01:35.350Z,9.60
2023-02-24T15:04:36.902Z,9.70
2023-02-24T15:07:27.722Z,9.80
2023-02-24T15:10:22.801Z,9.80
2023-02-24T15:13:18.171Z,9.70
2023-02-24T15:16:12.762Z,9.70
2023-02-24T15:19:01.964Z,9.60
2023-02-24T15:21:49.364Z,9.60
2023-02-24T15:24:37.088Z,9.80
2023-02-24T15:27:30.723Z,9.80
2023-02-24T15:30:33.398Z,9.60
2023-02-24T15:33:24.402Z,9.50
2023-02-24T15:36:18.991Z,9.40
2023-02-24T15:39:09.127Z,9.30
2023-02-24T15:42:09.391Z,9.20
2023-02-24T15:44:58.199Z,9.10
2023-02-24T15:47:53.820Z,9.10
2023-02-24T15:50:41.330Z,9.00
2023-02-24T15:53:28.874Z,9.10
2023-02-24T15:56:18.161Z,9.00
2023-02-24T15:59:06.166Z,8.90
2023-02-24T16:01:53.285Z,8.90
2023-02-24T16:04:42.094Z,8.70
2023-02-24T16:07:32.813Z,8.60
2023-02-24T16:10:23.676Z,8.60
2023-02-24T16:13:20.205Z,8.60
2023-02-24T16:16:08.435Z,8.50
2023-02-24T16:18:56.838Z,8.40
2023-02-24T16:21:46.824Z,8.40
2023-02-24T16:24:34.099Z,8.20
2023-02-24T16:27:26.160Z,8.10
2023-02-24T16:30:20.789Z,7.90
2023-02-24T16:33:13.982Z,7.80
2023-02-24T16:36:00.981Z,7.70
2023-02-24T16:38:51.858Z,7.70
2023-02-24T16:41:40.075Z,7.60
2023-02-24T16:44:27.421Z,7.70
2023-02-24T16:47:17.677Z,7.70
2023-02-24T16:50:06.855Z,7.70
2023-02-24T16:52:54.290Z,7.70
2023-02-24T16:55:46.655Z,7.70
2023-02-24T16:58:33.870Z,7.70
2023-02-24T17:01:23.328Z,7.70
2023-02-24T17:04:11.229Z,7.60
2023-02-24T17:06:58.405Z,7.50
2023-02-24T17:09:46.416Z,7.40
2023-02-24T17:12:35.347Z,7.40
2023-02-24T17:15:27.864Z,7.40
2023-02-24T17:18:15.308Z,7.30
2023-02-24T17:21:02.968Z,7.30
2023-02-24T17:23:51.482Z,7.20
2023-02-24T17:26:38.948Z,7.10
2023-02-24T17:29:27.773Z,7.10
2023-02-24T17:32:14.995Z,7.00
2023-02-24T17:35:02.237Z,6.90
2023-02-24T17:37:49.837Z,6.90
2023-02-24T17:40:37.186Z,6.90
2023-02-24T17:43:24.526Z,6.90
2023-02-24T17:46:13.094Z,6.90
2023-02-24T17:49:00.392Z,6.90
2023-02-24T17:51:47.659Z,6.80
2023-02-24T17:54:34.933Z,6.80
2023-02-24T17:57:22.141Z,6.70
2023-02-24T18:00:12.597Z,6.70
2023-02-24T18:03:03.414Z,6.80
2023-02-24T18:05:58.354Z,6.80
2023-02-24T18:08:46.115Z,6.80
2023-02-24T18:11:33.732Z,6.90
2023-02-24T18:14:21.137Z,6.90
2023-02-24T18:17:08.691Z,6.90
2023-02-24T18:19:57.646Z,6.80
2023-02-24T18:22:45.501Z,6.80
2023-02-24T18:25:34.858Z,6.80
2023-02-24T18:28:22.092Z,6.70
2023-02-24T18:31:15.026Z,6.70
2023-02-24T18:34:02.208Z,6.70
2023-02-24T18:36:50.959Z,6.60
2023-02-24T18:39:38.515Z,6.60
2023-02-24T18:42:26.018Z,6.60
2023-02-24T18:45:13.305Z,6.60
2023-02-24T18:48:05.221Z,6.50
2023-02-24T18:50:53.507Z,6.60
2023-02-24T18:53:42.678Z,6.60
2023-02-24T18:56:32.075Z,6.50
2023-02-24T18:59:19.563Z,6.50
2023-02-24T19:02:07.061Z,6.50
2023-02-24T19:04:54.680Z,6.50
2023-02-24T19:07:42.989Z,6.50
2023-02-24T19:10:32.104Z,6.60
2023-02-24T19:13:20.569Z,6.50
2023-02-24T19:16:08.959Z,6.50
2023-02-24T19:18:57.729Z,6.50
2023-02-24T19:21:46.221Z,6.50
2023-02-24T19:24:33.595Z,6.50
2023-02-24T19:27:22.786Z,6.50
2023-02-24T19:30:11.755Z,6.40
2023-02-24T19:32:59.668Z,6.50
2023-02-24T19:35:47.285Z,6.60
2023-02-24T19:38:34.768Z,6.60
2023-02-24T19:41:22.298Z,6.60
2023-02-24T19:44:11.936Z,6.70
2023-02-24T19:46:59.384Z,6.60
2023-02-24T19:49:47.464Z,6.70
2023-02-24T19:52:34.565Z,6.70
2023-02-24T19:55:22.490Z,6.70
2023-02-24T19:58:10.263Z,6.70
2023-02-24T20:01:07.051Z,6.70
2023-02-24T20:03:57.290Z,6.70
2023-02-24T20:06:45.264Z,6.80
2023-02-24T20:09:32.923Z,6.70
2023-02-24T20:12:20.495Z,6.70
2023-02-24T20:15:08.953Z,6.70
2023-02-24T20:17:59.394Z,6.60
2023-02-24T20:20:48.975Z,6.50
2023-02-24T20:23:36.119Z,6.40
2023-02-24T20:26:23.364Z,6.30
2023-02-24T20:29:14.932Z,6.30
2023-02-24T20:32:02.690Z,6.20
2023-02-24T20:34:51.999Z,6.20
2023-02-24T20:37:39.296Z,6.10
2023-02-24T20:40:27.506Z,6.10
2023-02-24T20:43:15.547Z,6.10
2023-02-24T20:46:12.422Z,6.20
2023-02-24T20:49:00.956Z,6.10
2023-02-24T20:51:49.748Z,6.10
2023-02-24T20:54:37.378Z,6.10
2023-02-24T20:57:26.287Z,6.10
2023-02-24T21:00:15.598Z,6.10
2023-02-24T21:03:03.797Z,6.20
2023-02-24T21:06:01.440Z,6.20
2023-02-24T21:08:56.657Z,6.20
2023-02-24T21:11:44.057Z,6.20
2023-02-24T21:14:31.554Z,6.20
2023-02-24T21:17:18.974Z,6.20
2023-02-24T21:20:07.433Z,6.20
2023-02-24T21:22:54.774Z,6.20
2023-02-24T21:25:43.762Z,6.20
2023-02-24T21:28:30.814Z,6.20
2023-02-24T21:31:20.652Z,6.20
2023-02-24T21:34:11.471Z,6.20
2023-02-24T21:36:58.644Z,6.20
2023-02-24T21:39:46.379Z,6.20
2023-02-24T21:42:34.695Z,6.20
2023-02-24T21:45:21.820Z,6.20
2023-02-24T21:48:09.252Z,6.20
2023-02-24T21:51:00.509Z,6.20
2023-02-24T21:53:48.089Z,6.20
2023-02-24T21:56:35.717Z,6.10
2023-02-24T21:59:24.583Z,6.10
2023-02-24T22:02:15.715Z,6.10
2023-02-24T22:05:02.630Z,6.10
2023-02-24T22:07:51.230Z,6.00
2023-02-24T22:10:38.469Z,6.00
2023-02-24T22:13:26.076Z,6.00
2023-02-24T22:16:18.328Z,6.00
2023-02-24T22:19:06.179Z,6.00
2023-02-24T22:21:53.362Z,6.00
2023-02-24T22:24:41.708Z,6.00
2023-02-24T22:27:30.236Z,5.90
2023-02-24T22:30:17.853Z,5.90
2023-02-24T22:33:06.529Z,5.90
2023-02-24T22:35:53.804Z,5.90
2023-02-24T22:38:41.503Z,5.90
2023-02-24T22:41:31.355Z,5.90
2023-02-24T22:44:21.197Z,5.90
2023-02-24T22:47:08.347Z,5.90
2023-02-24T22:49:57.108Z,6.00
2023-02-24T22:52:44.854Z,6.00
2023-02-24T22:55:32.623Z,6.00
2023-02-24T22:58:20.425Z,6.00
2023-02-24T23:01:11.413Z,6.00
2023-02-24T23:04:01.048Z,6.00
2023-02-24T23:06:49.817Z,5.90
2023-02-24T23:09:37.267Z,5.90
2023-02-24T23:12:24.843Z,6.00
2023-02-24T23:15:12.598Z,5.90
2023-02-24T23:18:00.159Z,5.90
2023-02-24T23:20:49.114Z,5.90
2023-02-24T23:23:38.542Z,5.90
2023-02-24T23:26:30.301Z,5.90
2023-02-24T23:29:19.543Z,5.90
2023-02-24T23:32:07.265Z,5.80
2023-02-24T23:34:55.568Z,5.80
2023-02-24T23:37:42.878Z,5.90
2023-02-24T23:40:44.395Z,5.90
2023-02-24T23:43:36.476Z,5.90
2023-02-24T23:46:24.588Z,5.90
2023-02-24T23:49:11.845Z,5.90
2023-02-24T23:51:58.845Z,5.90
2023-02-24T23:54:50.006Z,5.90
2023-02-24T23:57:39.894Z,5.80
